sensor_id;sensor_type;location;lat;lon;timestamp;pressure;altitude;pressure_sealevel;temperature;humidity
64078;BME280;51039;49.696;10.808;2023-07-31T00:01:52;98300.47;;;15.71;77.84
64078;BME280;51039;49.696;10.808;2023-07-31T00:04:17;98302.44;;;15.76;78.03
64078;BME280;51039;49.696;10.808;2023-07-31T00:06:42;98299.31;;;15.79;77.62
64078;BME280;51039;49.696;10.808;2023-07-31T00:09:08;98303.69;;;15.85;77.86
64078;BME280;51039;49.696;10.808;2023-07-31T00:11:33;98295.69;;;15.85;77.86
64078;BME280;51039;49.696;10.808;2023-07-31T00:13:58;98302.16;;;15.89;77.37
64078;BME280;51039;49.696;10.808;2023-07-31T00:16:24;98300.06;;;15.91;77.52
64078;BME280;51039;49.696;10.808;2023-07-31T00:18:49;98299.84;;;15.93;77.37
64078;BME280;51039;49.696;10.808;2023-07-31T00:21:14;98298.78;;;15.94;77.92
64078;BME280;51039;49.696;10.808;2023-07-31T00:23:40;98299.59;;;15.94;77.45
64078;BME280;51039;49.696;10.808;2023-07-31T00:26:05;98301.78;;;15.97;77.66
64078;BME280;51039;49.696;10.808;2023-07-31T00:28:30;98298.41;;;16.02;77.73
64078;BME280;51039;49.696;10.808;2023-07-31T00:30:56;98297.00;;;15.99;77.73
64078;BME280;51039;49.696;10.808;2023-07-31T00:33:21;98297.25;;;15.98;77.21
64078;BME280;51039;49.696;10.808;2023-07-31T00:35:48;98294.94;;;16.01;77.73
64078;BME280;51039;49.696;10.808;2023-07-31T00:38:13;98297.00;;;15.99;77.77
64078;BME280;51039;49.696;10.808;2023-07-31T00:40:39;98295.81;;;16.07;77.99
64078;BME280;51039;49.696;10.808;2023-07-31T00:43:04;98292.34;;;16.06;78.52
64078;BME280;51039;49.696;10.808;2023-07-31T00:45:30;98297.22;;;16.09;78.70
64078;BME280;51039;49.696;10.808;2023-07-31T00:47:56;98296.13;;;16.10;78.09
64078;BME280;51039;49.696;10.808;2023-07-31T00:50:22;98298.00;;;16.10;78.53
64078;BME280;51039;49.696;10.808;2023-07-31T00:52:49;98302.06;;;16.13;78.71
64078;BME280;51039;49.696;10.808;2023-07-31T00:55:15;98295.66;;;16.14;78.15
64078;BME280;51039;49.696;10.808;2023-07-31T00:57:41;98295.91;;;16.12;77.46
64078;BME280;51039;49.696;10.808;2023-07-31T01:00:07;98294.53;;;16.09;77.76
64078;BME280;51039;49.696;10.808;2023-07-31T01:02:32;98293.47;;;16.10;77.50
64078;BME280;51039;49.696;10.808;2023-07-31T01:04:58;98287.31;;;16.10;77.68
64078;BME280;51039;49.696;10.808;2023-07-31T01:07:30;98289.75;;;16.12;77.81
64078;BME280;51039;49.696;10.808;2023-07-31T01:10:15;98277.94;;;16.07;77.54
64078;BME280;51039;49.696;10.808;2023-07-31T01:12:46;98279.78;;;16.07;78.34
64078;BME280;51039;49.696;10.808;2023-07-31T01:15:13;98281.66;;;16.06;77.78
64078;BME280;51039;49.696;10.808;2023-07-31T01:17:40;98281.19;;;16.09;77.60
64078;BME280;51039;49.696;10.808;2023-07-31T01:28:55;98276.16;;;16.13;77.92
64078;BME280;51039;49.696;10.808;2023-07-31T01:31:26;98274.88;;;16.16;77.85
64078;BME280;51039;49.696;10.808;2023-07-31T01:33:54;98276.50;;;16.17;78.00
64078;BME280;51039;49.696;10.808;2023-07-31T01:36:24;98264.19;;;16.16;77.86
64078;BME280;51039;49.696;10.808;2023-07-31T01:38:50;98260.94;;;16.14;77.32
64078;BME280;51039;49.696;10.808;2023-07-31T01:41:16;98256.16;;;16.16;77.64
64078;BME280;51039;49.696;10.808;2023-07-31T01:43:47;98255.91;;;16.17;77.63
64078;BME280;51039;49.696;10.808;2023-07-31T01:46:13;98254.06;;;16.18;77.68
64078;BME280;51039;49.696;10.808;2023-07-31T01:48:38;98257.19;;;16.15;78.15
64078;BME280;51039;49.696;10.808;2023-07-31T01:51:03;98246.50;;;16.15;77.61
64078;BME280;51039;49.696;10.808;2023-07-31T01:53:30;98249.50;;;16.18;77.52
64078;BME280;51039;49.696;10.808;2023-07-31T01:55:56;98248.94;;;16.16;77.65
64078;BME280;51039;49.696;10.808;2023-07-31T01:58:21;98238.25;;;16.16;77.66
64078;BME280;51039;49.696;10.808;2023-07-31T02:00:47;98236.41;;;16.17;77.92
64078;BME280;51039;49.696;10.808;2023-07-31T02:03:12;98231.06;;;16.17;77.37
64078;BME280;51039;49.696;10.808;2023-07-31T02:05:44;98232.91;;;16.16;77.55
64078;BME280;51039;49.696;10.808;2023-07-31T02:08:13;98221.88;;;16.13;78.35
64078;BME280;51039;49.696;10.808;2023-07-31T02:10:38;98218.66;;;16.10;77.96
64078;BME280;51039;49.696;10.808;2023-07-31T02:13:04;98219.16;;;16.07;78.46
64078;BME280;51039;49.696;10.808;2023-07-31T02:15:29;98216.47;;;16.07;78.54
64078;BME280;51039;49.696;10.808;2023-07-31T02:17:55;98212.75;;;16.08;78.52
64078;BME280;51039;49.696;10.808;2023-07-31T02:20:21;98210.41;;;16.12;78.46
64078;BME280;51039;49.696;10.808;2023-07-31T02:22:46;98211.13;;;16.07;79.33
64078;BME280;51039;49.696;10.808;2023-07-31T02:25:11;98207.41;;;16.08;78.96
64078;BME280;51039;49.696;10.808;2023-07-31T02:27:37;98205.56;;;16.09;78.82
64078;BME280;51039;49.696;10.808;2023-07-31T02:30:02;98205.28;;;16.10;79.00
64078;BME280;51039;49.696;10.808;2023-07-31T02:32:28;98203.69;;;16.09;78.81
64078;BME280;51039;49.696;10.808;2023-07-31T02:34:53;98209.59;;;16.12;78.17
64078;BME280;51039;49.696;10.808;2023-07-31T02:37:18;98219.53;;;16.16;78.30
64078;BME280;51039;49.696;10.808;2023-07-31T02:39:44;98211.53;;;16.16;78.14
64078;BME280;51039;49.696;10.808;2023-07-31T02:42:09;98211.84;;;16.20;78.00
64078;BME280;51039;49.696;10.808;2023-07-31T02:44:34;98205.16;;;16.17;78.42
64078;BME280;51039;49.696;10.808;2023-07-31T02:47:00;98205.94;;;16.18;78.40
64078;BME280;51039;49.696;10.808;2023-07-31T02:49:25;98211.06;;;16.19;78.17
64078;BME280;51039;49.696;10.808;2023-07-31T02:51:50;98204.41;;;16.22;77.88
64078;BME280;51039;49.696;10.808;2023-07-31T02:54:16;98196.97;;;16.24;77.55
64078;BME280;51039;49.696;10.808;2023-07-31T02:56:41;98206.38;;;16.26;76.96
64078;BME280;51039;49.696;10.808;2023-07-31T02:59:06;98201.03;;;16.26;77.15
64078;BME280;51039;49.696;10.808;2023-07-31T03:01:32;98197.84;;;16.29;76.92
64078;BME280;51039;49.696;10.808;2023-07-31T03:03:57;98202.16;;;16.31;76.70
64078;BME280;51039;49.696;10.808;2023-07-31T03:06:22;98194.13;;;16.31;76.71
64078;BME280;51039;49.696;10.808;2023-07-31T03:08:48;98194.69;;;16.33;76.33
64078;BME280;51039;49.696;10.808;2023-07-31T03:11:13;98198.41;;;16.32;76.24
64078;BME280;51039;49.696;10.808;2023-07-31T03:13:38;98193.91;;;16.32;76.08
64078;BME280;51039;49.696;10.808;2023-07-31T03:16:04;98186.69;;;16.33;76.07
64078;BME280;51039;49.696;10.808;2023-07-31T03:18:29;98187.00;;;16.36;75.86
64078;BME280;51039;49.696;10.808;2023-07-31T03:20:54;98196.06;;;16.35;76.08
64078;BME280;51039;49.696;10.808;2023-07-31T03:23:20;98192.09;;;16.38;75.54
64078;BME280;51039;49.696;10.808;2023-07-31T03:26:02;98193.72;;;16.39;75.57
64078;BME280;51039;49.696;10.808;2023-07-31T03:28:28;98192.91;;;16.38;75.45
64078;BME280;51039;49.696;10.808;2023-07-31T03:30:54;98184.91;;;16.38;75.66
64078;BME280;51039;49.696;10.808;2023-07-31T03:33:20;98189.91;;;16.35;75.75
64078;BME280;51039;49.696;10.808;2023-07-31T03:35:45;98191.78;;;16.34;75.75
64078;BME280;51039;49.696;10.808;2023-07-31T03:38:11;98191.69;;;16.29;75.79
64078;BME280;51039;49.696;10.808;2023-07-31T03:40:36;98191.13;;;16.27;76.12
64078;BME280;51039;49.696;10.808;2023-07-31T03:43:01;98196.16;;;16.23;76.29
64078;BME280;51039;49.696;10.808;2023-07-31T03:45:27;98190.47;;;16.20;76.42
64078;BME280;51039;49.696;10.808;2023-07-31T03:47:52;98179.00;;;16.19;76.08
64078;BME280;51039;49.696;10.808;2023-07-31T03:50:19;98183.53;;;16.19;75.81
64078;BME280;51039;49.696;10.808;2023-07-31T03:52:45;98183.78;;;16.17;76.11
64078;BME280;51039;49.696;10.808;2023-07-31T03:55:10;98181.91;;;16.18;76.28
64078;BME280;51039;49.696;10.808;2023-07-31T03:57:35;98175.44;;;16.14;76.46
64078;BME280;51039;49.696;10.808;2023-07-31T04:00:01;98180.78;;;16.14;76.19
64078;BME280;51039;49.696;10.808;2023-07-31T04:02:26;98179.69;;;16.15;76.34
64078;BME280;51039;49.696;10.808;2023-07-31T04:04:52;98187.81;;;16.20;76.29
64078;BME280;51039;49.696;10.808;2023-07-31T04:07:17;98186.22;;;16.19;76.26
64078;BME280;51039;49.696;10.808;2023-07-31T04:09:42;98191.03;;;16.22;75.79
64078;BME280;51039;49.696;10.808;2023-07-31T04:12:08;98182.22;;;16.21;75.75
64078;BME280;51039;49.696;10.808;2023-07-31T04:14:33;98189.13;;;16.17;76.38
64078;BME280;51039;49.696;10.808;2023-07-31T04:16:58;98177.88;;;16.15;76.43
64078;BME280;51039;49.696;10.808;2023-07-31T04:19:24;98179.31;;;16.23;76.20
64078;BME280;51039;49.696;10.808;2023-07-31T04:21:49;98178.81;;;16.26;76.46
64078;BME280;51039;49.696;10.808;2023-07-31T04:24:14;98176.69;;;16.28;76.14
64078;BME280;51039;49.696;10.808;2023-07-31T04:26:40;98179.94;;;16.30;76.15
64078;BME280;51039;49.696;10.808;2023-07-31T04:29:05;98188.03;;;16.35;76.10
64078;BME280;51039;49.696;10.808;2023-07-31T04:31:30;98179.22;;;16.35;75.82
64078;BME280;51039;49.696;10.808;2023-07-31T04:33:56;98178.09;;;16.31;75.99
64078;BME280;51039;49.696;10.808;2023-07-31T04:36:21;98168.97;;;16.26;76.43
64078;BME280;51039;49.696;10.808;2023-07-31T04:38:46;98172.91;;;16.24;76.64
64078;BME280;51039;49.696;10.808;2023-07-31T04:41:12;98169.25;;;16.30;76.85
64078;BME280;51039;49.696;10.808;2023-07-31T04:43:37;98166.09;;;16.33;76.63
64078;BME280;51039;49.696;10.808;2023-07-31T04:46:05;98167.72;;;16.34;76.45
64078;BME280;51039;49.696;10.808;2023-07-31T04:48:30;98171.22;;;16.35;76.37
64078;BME280;51039;49.696;10.808;2023-07-31T04:50:55;98175.56;;;16.41;76.05
64078;BME280;51039;49.696;10.808;2023-07-31T04:53:21;98171.91;;;16.47;75.77
64078;BME280;51039;49.696;10.808;2023-07-31T04:55:46;98177.72;;;16.61;75.20
64078;BME280;51039;49.696;10.808;2023-07-31T04:58:12;98181.75;;;16.80;75.04
64078;BME280;51039;49.696;10.808;2023-07-31T05:00:37;98178.22;;;16.97;74.39
64078;BME280;51039;49.696;10.808;2023-07-31T05:03:02;98174.13;;;17.11;73.48
64078;BME280;51039;49.696;10.808;2023-07-31T05:05:28;98184.88;;;17.16;73.77
64078;BME280;51039;49.696;10.808;2023-07-31T05:07:53;98185.81;;;17.05;73.62
64078;BME280;51039;49.696;10.808;2023-07-31T05:10:18;98186.00;;;16.98;73.71
64078;BME280;51039;49.696;10.808;2023-07-31T05:12:43;98184.13;;;16.99;74.23
64078;BME280;51039;49.696;10.808;2023-07-31T05:15:09;98181.91;;;16.91;74.52
64078;BME280;51039;49.696;10.808;2023-07-31T05:17:34;98180.66;;;16.98;73.91
64078;BME280;51039;49.696;10.808;2023-07-31T05:20:00;98189.44;;;16.94;73.47
64078;BME280;51039;49.696;10.808;2023-07-31T05:22:25;98179.34;;;17.01;73.60
64078;BME280;51039;49.696;10.808;2023-07-31T05:24:50;98174.91;;;16.90;73.70
64078;BME280;51039;49.696;10.808;2023-07-31T05:27:16;98177.66;;;16.95;73.69
64078;BME280;51039;49.696;10.808;2023-07-31T05:29:43;98180.22;;;17.06;73.94
64078;BME280;51039;49.696;10.808;2023-07-31T05:32:09;98179.03;;;16.97;73.11
64078;BME280;51039;49.696;10.808;2023-07-31T05:34:35;98185.13;;;17.15;73.41
64078;BME280;51039;49.696;10.808;2023-07-31T05:37:00;98183.69;;;17.29;72.66
64078;BME280;51039;49.696;10.808;2023-07-31T05:39:25;98184.00;;;17.33;71.98
64078;BME280;51039;49.696;10.808;2023-07-31T05:41:51;98180.38;;;17.44;71.83
64078;BME280;51039;49.696;10.808;2023-07-31T05:44:16;98176.75;;;17.55;71.56
64078;BME280;51039;49.696;10.808;2023-07-31T05:46:41;98173.09;;;17.66;70.83
64078;BME280;51039;49.696;10.808;2023-07-31T05:49:07;98177.06;;;18.61;67.95
64078;BME280;51039;49.696;10.808;2023-07-31T05:51:32;98161.78;;;19.14;64.90
64078;BME280;51039;49.696;10.808;2023-07-31T05:53:57;98167.28;;;19.55;63.36
64078;BME280;51039;49.696;10.808;2023-07-31T05:56:22;98158.75;;;18.90;64.98
64078;BME280;51039;49.696;10.808;2023-07-31T05:58:48;98161.16;;;18.87;65.13
64078;BME280;51039;49.696;10.808;2023-07-31T06:01:15;98164.97;;;19.01;65.76
64078;BME280;51039;49.696;10.808;2023-07-31T06:03:41;98163.50;;;19.41;64.13
64078;BME280;51039;49.696;10.808;2023-07-31T06:06:06;98158.06;;;19.15;65.31
64078;BME280;51039;49.696;10.808;2023-07-31T06:08:32;98164.53;;;19.25;65.12
64078;BME280;51039;49.696;10.808;2023-07-31T06:10:57;98166.38;;;18.66;65.93
64078;BME280;51039;49.696;10.808;2023-07-31T06:13:23;98158.41;;;18.34;67.50
64078;BME280;51039;49.696;10.808;2023-07-31T06:15:48;98159.13;;;18.19;67.76
64078;BME280;51039;49.696;10.808;2023-07-31T06:18:13;98167.59;;;18.05;68.90
64078;BME280;51039;49.696;10.808;2023-07-31T06:20:39;98161.72;;;18.09;69.11
64078;BME280;51039;49.696;10.808;2023-07-31T06:23:05;98165.88;;;17.94;69.82
64078;BME280;51039;49.696;10.808;2023-07-31T06:25:31;98170.47;;;17.99;69.18
64078;BME280;51039;49.696;10.808;2023-07-31T06:27:56;98170.91;;;18.18;68.66
64078;BME280;51039;49.696;10.808;2023-07-31T06:30:21;98163.94;;;18.17;68.71
64078;BME280;51039;49.696;10.808;2023-07-31T06:32:47;98162.19;;;18.38;68.51
64078;BME280;51039;49.696;10.808;2023-07-31T06:35:12;98169.56;;;18.58;67.70
64078;BME280;51039;49.696;10.808;2023-07-31T06:37:37;98168.06;;;18.77;67.54
64078;BME280;51039;49.696;10.808;2023-07-31T06:40:05;98166.78;;;18.85;65.83
64078;BME280;51039;49.696;10.808;2023-07-31T06:42:33;98168.31;;;18.71;66.41
64078;BME280;51039;49.696;10.808;2023-07-31T06:44:59;98172.03;;;19.28;65.55
64078;BME280;51039;49.696;10.808;2023-07-31T06:47:25;98180.22;;;19.74;64.01
64078;BME280;51039;49.696;10.808;2023-07-31T06:49:51;98174.56;;;20.73;60.35
64078;BME280;51039;49.696;10.808;2023-07-31T06:52:16;98167.66;;;21.22;58.39
64078;BME280;51039;49.696;10.808;2023-07-31T06:54:41;98168.09;;;21.34;58.46
64078;BME280;51039;49.696;10.808;2023-07-31T06:57:07;98170.78;;;20.74;58.78
64078;BME280;51039;49.696;10.808;2023-07-31T06:59:33;98165.16;;;20.39;60.19
64078;BME280;51039;49.696;10.808;2023-07-31T07:01:58;98161.97;;;20.22;61.84
64078;BME280;51039;49.696;10.808;2023-07-31T07:04:23;98164.94;;;20.15;61.79
64078;BME280;51039;49.696;10.808;2023-07-31T07:06:49;98170.56;;;20.24;62.15
64078;BME280;51039;49.696;10.808;2023-07-31T07:09:14;98166.28;;;20.03;62.39
64078;BME280;51039;49.696;10.808;2023-07-31T07:11:39;98163.06;;;19.90;63.02
64078;BME280;51039;49.696;10.808;2023-07-31T07:14:05;98170.81;;;19.71;63.96
64078;BME280;51039;49.696;10.808;2023-07-31T07:16:30;98171.94;;;19.80;63.76
64078;BME280;51039;49.696;10.808;2023-07-31T07:18:56;98173.81;;;19.85;62.91
64078;BME280;51039;49.696;10.808;2023-07-31T07:21:21;98174.06;;;19.73;63.26
64078;BME280;51039;49.696;10.808;2023-07-31T07:23:46;98170.59;;;19.88;62.21
64078;BME280;51039;49.696;10.808;2023-07-31T07:26:11;98173.81;;;20.00;62.72
64078;BME280;51039;49.696;10.808;2023-07-31T07:28:37;98174.34;;;20.13;62.58
64078;BME280;51039;49.696;10.808;2023-07-31T07:31:02;98171.38;;;20.19;61.67
64078;BME280;51039;49.696;10.808;2023-07-31T07:33:28;98172.47;;;20.08;62.18
64078;BME280;51039;49.696;10.808;2023-07-31T07:35:53;98170.03;;;20.32;62.43
64078;BME280;51039;49.696;10.808;2023-07-31T07:38:19;98168.41;;;20.47;63.13
64078;BME280;51039;49.696;10.808;2023-07-31T07:40:44;98174.63;;;21.28;60.67
64078;BME280;51039;49.696;10.808;2023-07-31T07:43:11;98164.13;;;21.76;59.56
64078;BME280;51039;49.696;10.808;2023-07-31T07:45:37;98170.78;;;21.44;59.72
64078;BME280;51039;49.696;10.808;2023-07-31T07:48:02;98158.31;;;21.53;59.40
64078;BME280;51039;49.696;10.808;2023-07-31T07:50:28;98160.81;;;22.19;56.98
64078;BME280;51039;49.696;10.808;2023-07-31T07:52:53;98160.88;;;23.39;53.64
64078;BME280;51039;49.696;10.808;2023-07-31T07:55:19;98155.22;;;24.86;49.50
64078;BME280;51039;49.696;10.808;2023-07-31T07:57:44;98164.97;;;24.40;50.79
64078;BME280;51039;49.696;10.808;2023-07-31T08:00:10;98160.94;;;24.24;50.19
64078;BME280;51039;49.696;10.808;2023-07-31T08:02:37;98160.34;;;24.87;49.02
64078;BME280;51039;49.696;10.808;2023-07-31T08:05:02;98157.13;;;24.85;48.56
64078;BME280;51039;49.696;10.808;2023-07-31T08:07:28;98153.59;;;24.71;48.54
64078;BME280;51039;49.696;10.808;2023-07-31T08:09:53;98151.72;;;24.58;48.37
64078;BME280;51039;49.696;10.808;2023-07-31T08:12:18;98144.06;;;24.13;49.83
64078;BME280;51039;49.696;10.808;2023-07-31T08:14:44;98140.59;;;23.75;51.08
64078;BME280;51039;49.696;10.808;2023-07-31T08:17:09;98145.16;;;22.98;51.59
64078;BME280;51039;49.696;10.808;2023-07-31T08:19:35;98138.00;;;22.64;55.03
64078;BME280;51039;49.696;10.808;2023-07-31T08:22:00;98134.25;;;22.84;52.57
64078;BME280;51039;49.696;10.808;2023-07-31T08:24:25;98130.97;;;23.49;50.88
64078;BME280;51039;49.696;10.808;2023-07-31T08:26:51;98135.47;;;24.58;48.32
64078;BME280;51039;49.696;10.808;2023-07-31T08:29:16;98130.94;;;24.53;49.06
64078;BME280;51039;49.696;10.808;2023-07-31T08:31:41;98125.13;;;24.87;48.83
64078;BME280;51039;49.696;10.808;2023-07-31T08:34:07;98124.56;;;26.62;45.01
64078;BME280;51039;49.696;10.808;2023-07-31T08:36:32;98121.19;;;27.23;43.00
64078;BME280;51039;49.696;10.808;2023-07-31T08:38:57;98123.03;;;29.13;40.15
64078;BME280;51039;49.696;10.808;2023-07-31T08:41:23;98113.22;;;27.44;42.93
64078;BME280;51039;49.696;10.808;2023-07-31T08:43:49;98123.94;;;28.10;41.27
64078;BME280;51039;49.696;10.808;2023-07-31T08:46:16;98123.56;;;28.20;41.39
64078;BME280;51039;49.696;10.808;2023-07-31T08:48:42;98115.28;;;26.63;42.63
64078;BME280;51039;49.696;10.808;2023-07-31T08:51:08;98121.31;;;24.75;46.46
64078;BME280;51039;49.696;10.808;2023-07-31T08:53:34;98127.72;;;24.51;47.53
64078;BME280;51039;49.696;10.808;2023-07-31T08:56:00;98113.00;;;23.59;49.88
64078;BME280;51039;49.696;10.808;2023-07-31T08:58:27;98120.56;;;24.27;49.11
64078;BME280;51039;49.696;10.808;2023-07-31T09:00:57;98124.44;;;24.54;48.61
64078;BME280;51039;49.696;10.808;2023-07-31T09:03:26;98115.19;;;26.77;44.58
64078;BME280;51039;49.696;10.808;2023-07-31T09:05:51;98096.31;;;26.72;43.22
64078;BME280;51039;49.696;10.808;2023-07-31T09:08:19;98110.56;;;26.78;43.11
64078;BME280;51039;49.696;10.808;2023-07-31T09:10:46;98107.31;;;26.67;43.88
64078;BME280;51039;49.696;10.808;2023-07-31T09:13:12;98101.66;;;25.70;45.32
64078;BME280;51039;49.696;10.808;2023-07-31T09:15:38;98107.91;;;25.34;46.75
64078;BME280;51039;49.696;10.808;2023-07-31T09:18:05;98114.16;;;25.06;46.48
64078;BME280;51039;49.696;10.808;2023-07-31T09:20:31;98121.94;;;24.72;48.26
64078;BME280;51039;49.696;10.808;2023-07-31T09:23:05;98113.81;;;24.72;47.47
64078;BME280;51039;49.696;10.808;2023-07-31T09:25:39;98105.22;;;25.56;46.95
64078;BME280;51039;49.696;10.808;2023-07-31T09:28:08;98112.00;;;25.45;46.98
64078;BME280;51039;49.696;10.808;2023-07-31T09:30:47;98102.63;;;25.51;47.34
64078;BME280;51039;49.696;10.808;2023-07-31T09:33:14;98102.78;;;25.32;47.58
64078;BME280;51039;49.696;10.808;2023-07-31T09:35:40;98105.31;;;25.28;47.39
64078;BME280;51039;49.696;10.808;2023-07-31T09:38:07;98101.28;;;24.62;47.95
64078;BME280;51039;49.696;10.808;2023-07-31T09:40:35;98096.75;;;24.57;48.56
64078;BME280;51039;49.696;10.808;2023-07-31T09:43:02;98101.19;;;24.20;49.42
64078;BME280;51039;49.696;10.808;2023-07-31T09:45:30;98096.78;;;23.59;50.60
64078;BME280;51039;49.696;10.808;2023-07-31T09:47:59;98090.03;;;23.42;50.50
64078;BME280;51039;49.696;10.808;2023-07-31T09:50:24;98088.34;;;23.27;51.15
64078;BME280;51039;49.696;10.808;2023-07-31T09:52:50;98089.72;;;23.25;51.41
64078;BME280;51039;49.696;10.808;2023-07-31T09:55:17;98084.47;;;23.15;51.81
64078;BME280;51039;49.696;10.808;2023-07-31T09:57:46;98088.19;;;23.19;51.49
64078;BME280;51039;49.696;10.808;2023-07-31T10:00:13;98081.72;;;22.96;52.97
64078;BME280;51039;49.696;10.808;2023-07-31T10:02:46;98073.19;;;23.97;50.23
64078;BME280;51039;49.696;10.808;2023-07-31T10:05:13;98077.09;;;24.65;48.59
64078;BME280;51039;49.696;10.808;2023-07-31T10:07:41;98068.84;;;25.35;46.03
64078;BME280;51039;49.696;10.808;2023-07-31T10:10:08;98046.81;;;26.04;45.08
64078;BME280;51039;49.696;10.808;2023-07-31T10:12:36;98058.72;;;26.66;43.89
64078;BME280;51039;49.696;10.808;2023-07-31T10:15:02;98042.50;;;27.00;43.56
64078;BME280;51039;49.696;10.808;2023-07-31T10:17:29;98043.09;;;27.76;41.26
64078;BME280;51039;49.696;10.808;2023-07-31T10:19:56;98040.94;;;28.16;40.97
64078;BME280;51039;49.696;10.808;2023-07-31T10:22:23;98034.38;;;28.77;39.94
64078;BME280;51039;49.696;10.808;2023-07-31T10:24:49;98044.34;;;28.73;39.75
64078;BME280;51039;49.696;10.808;2023-07-31T10:27:15;98032.28;;;27.32;42.37
64078;BME280;51039;49.696;10.808;2023-07-31T10:29:41;98026.63;;;26.76;42.32
64078;BME280;51039;49.696;10.808;2023-07-31T10:32:09;98030.13;;;26.68;42.94
64078;BME280;51039;49.696;10.808;2023-07-31T10:34:37;98027.06;;;25.90;43.33
64078;BME280;51039;49.696;10.808;2023-07-31T10:42:37;98010.88;;;25.44;45.73
64078;BME280;51039;49.696;10.808;2023-07-31T10:45:10;98013.91;;;25.06;45.95
64078;BME280;51039;49.696;10.808;2023-07-31T10:47:42;98003.25;;;26.09;45.81
64078;BME280;51039;49.696;10.808;2023-07-31T10:52:46;98007.69;;;27.93;39.70
64078;BME280;51039;49.696;10.808;2023-07-31T10:58:08;98019.13;;;27.52;41.67
64078;BME280;51039;49.696;10.808;2023-07-31T11:00:42;98014.97;;;27.46;40.87
64078;BME280;51039;49.696;10.808;2023-07-31T11:03:18;98009.97;;;27.74;39.88
64078;BME280;51039;49.696;10.808;2023-07-31T11:06:02;98006.13;;;27.75;40.46
64078;BME280;51039;49.696;10.808;2023-07-31T11:08:29;97997.69;;;26.80;42.77
64078;BME280;51039;49.696;10.808;2023-07-31T11:13:26;98001.56;;;25.91;45.00
64078;BME280;51039;49.696;10.808;2023-07-31T11:15:52;97994.91;;;25.74;44.04
64078;BME280;51039;49.696;10.808;2023-07-31T11:18:17;98000.56;;;25.86;43.82
64078;BME280;51039;49.696;10.808;2023-07-31T11:20:43;97999.25;;;26.07;44.35
64078;BME280;51039;49.696;10.808;2023-07-31T11:23:09;98001.47;;;25.73;43.99
64078;BME280;51039;49.696;10.808;2023-07-31T11:25:36;97989.28;;;25.39;44.41
64078;BME280;51039;49.696;10.808;2023-07-31T11:28:09;97989.13;;;24.99;46.02
64078;BME280;51039;49.696;10.808;2023-07-31T11:30:36;97992.78;;;25.40;45.58
64078;BME280;51039;49.696;10.808;2023-07-31T11:33:02;97989.59;;;25.38;45.73
64078;BME280;51039;49.696;10.808;2023-07-31T11:35:50;97996.94;;;25.37;44.66
64078;BME280;51039;49.696;10.808;2023-07-31T11:38:48;97993.00;;;25.75;45.16
64078;BME280;51039;49.696;10.808;2023-07-31T11:41:06;98001.63;;;25.99;44.60
64078;BME280;51039;49.696;10.808;2023-07-31T11:43:32;97995.94;;;26.18;45.75
64078;BME280;51039;49.696;10.808;2023-07-31T11:45:58;97996.44;;;27.13;44.11
64078;BME280;51039;49.696;10.808;2023-07-31T11:48:31;97992.09;;;26.77;42.73
64078;BME280;51039;49.696;10.808;2023-07-31T11:51:03;97986.84;;;26.89;41.88
64078;BME280;51039;49.696;10.808;2023-07-31T11:56:18;97974.03;;;26.06;42.45
64078;BME280;51039;49.696;10.808;2023-07-31T11:58:46;97978.97;;;26.61;42.44
64078;BME280;51039;49.696;10.808;2023-07-31T12:01:16;97985.13;;;26.36;43.50
64078;BME280;51039;49.696;10.808;2023-07-31T12:03:44;97984.41;;;26.04;44.08
64078;BME280;51039;49.696;10.808;2023-07-31T12:06:11;97984.34;;;25.95;44.93
64078;BME280;51039;49.696;10.808;2023-07-31T12:08:36;97988.00;;;25.91;44.57
64078;BME280;51039;49.696;10.808;2023-07-31T12:11:03;97980.78;;;25.32;45.55
64078;BME280;51039;49.696;10.808;2023-07-31T12:13:30;97998.72;;;25.05;45.78
64078;BME280;51039;49.696;10.808;2023-07-31T12:15:56;97983.69;;;24.99;46.31
64078;BME280;51039;49.696;10.808;2023-07-31T12:18:24;97977.41;;;24.90;45.74
64078;BME280;51039;49.696;10.808;2023-07-31T12:20:55;97976.50;;;24.58;46.79
64078;BME280;51039;49.696;10.808;2023-07-31T12:23:26;97967.84;;;24.70;46.80
64078;BME280;51039;49.696;10.808;2023-07-31T12:28:41;97959.31;;;24.99;45.68
64078;BME280;51039;49.696;10.808;2023-07-31T12:31:15;97955.47;;;25.37;45.11
64078;BME280;51039;49.696;10.808;2023-07-31T12:33:45;97944.66;;;26.08;44.88
64078;BME280;51039;49.696;10.808;2023-07-31T12:36:20;97942.75;;;25.77;44.56
64078;BME280;51039;49.696;10.808;2023-07-31T12:38:47;97939.44;;;25.26;46.38
64078;BME280;51039;49.696;10.808;2023-07-31T12:41:13;97941.56;;;25.61;45.18
64078;BME280;51039;49.696;10.808;2023-07-31T12:43:39;97949.88;;;25.96;44.30
64078;BME280;51039;49.696;10.808;2023-07-31T12:46:05;97938.75;;;26.06;43.96
64078;BME280;51039;49.696;10.808;2023-07-31T12:48:33;97938.59;;;26.11;44.68
64078;BME280;51039;49.696;10.808;2023-07-31T12:50:59;97935.44;;;25.86;44.26
64078;BME280;51039;49.696;10.808;2023-07-31T12:53:24;97934.41;;;26.05;43.64
64078;BME280;51039;49.696;10.808;2023-07-31T12:55:49;97921.75;;;25.92;44.22
64078;BME280;51039;49.696;10.808;2023-07-31T12:58:15;97922.16;;;25.76;44.49
64078;BME280;51039;49.696;10.808;2023-07-31T13:00:41;97914.13;;;25.62;44.25
64078;BME280;51039;49.696;10.808;2023-07-31T13:03:06;97915.97;;;25.84;44.66
64078;BME280;51039;49.696;10.808;2023-07-31T13:05:31;97912.63;;;25.88;44.82
64078;BME280;51039;49.696;10.808;2023-07-31T13:07:57;97912.84;;;26.00;43.56
64078;BME280;51039;49.696;10.808;2023-07-31T13:10:23;97901.94;;;25.51;44.94
64078;BME280;51039;49.696;10.808;2023-07-31T13:12:49;97891.28;;;25.23;45.83
64078;BME280;51039;49.696;10.808;2023-07-31T13:15:14;97898.56;;;25.45;46.15